Date,TemperatureHighF,TemperatureAvgF,TemperatureLowF,DewpointHighF,DewpointAvgF,DewpointLowF,HumidityHigh,HumidityAvg,HumidityLow,PressureMaxIn,PressureMinIn,WindSpeedMaxMPH,WindSpeedAvgMPH,GustSpeedMaxMPH,PrecipitationSumIn
2013-9-1,78.6,74.0,70.9,75.2,71.9,70.6,100,94,78,29.89,29.83,10,0,10,0.16
2013-9-2,75.4,73.2,70.5,75.4,73.2,70.5,100,100,98,29.86,29.71,4,0,4,0.59
2013-9-3,73.9,71.3,63.0,73.9,70.8,59.9,100,98,85,29.89,29.71,5,0,5,0.08
2013-9-4,75.7,65.9,58.6,62.3,59.1,56.4,96,80,60,29.98,29.86,10,0,10,0.08
2013-9-5,72.5,63.4,54.5,61.6,55.1,47.0,94,75,58,30.15,29.92,8,0,8,0.08
2013-9-6,66.4,57.6,50.2,51.1,47.1,42.0,82,69,57,30.27,30.15,8,0,8,0.08
2013-9-7,72.3,60.2,48.7,57.8,51.2,43.7,87,73,58,30.15,29.92,8,0,8,0.08
2013-9-8,76.5,65.7,54.0,62.2,56.0,43.4,92,72,57,30.09,29.80,8,0,8,0.08
2013-9-9,67.3,57.2,47.1,53.8,47.0,40.2,85,69,57,30.27,30.09,8,0,8,0.08
2013-9-10,73.0,67.0,58.5,72.5,65.3,53.5,100,95,83,30.18,30.06,10,0,10,0.12
2013-9-11,84.9,72.8,67.6,77.4,70.6,67.6,100,94,72,30.12,30.01,7,0,7,0.00
2013-9-12,80.8,72.9,68.9,73.2,69.6,68.4,100,90,70,30.01,29.71,12,0,12,0.55
2013-9-13,71.8,66.9,58.8,70.3,65.0,51.4,100,94,73,29.80,29.62,0,0,0,0.47
2013-9-14,65.5,57.8,50.4,53.1,49.5,46.4,88,74,61,30.09,29.80,7,0,7,0.00
2013-9-15,66.0,55.9,48.0,52.4,48.4,43.4,90,77,59,30.21,30.09,7,0,7,0.00
2013-9-16,68.2,58.9,52.2,56.7,51.9,38.6,95,79,60,30.24,30.03,10,0,10,0.00
2013-9-17,62.8,51.4,42.6,47.7,40.5,34.2,84,67,57,30.42,30.24,11,1,11,0.00
2013-9-18,67.6,51.3,41.0,52.4,43.8,36.2,88,76,58,30.36,30.18,10,0,10,0.00
2013-9-19,72.0,56.9,46.0,56.9,49.1,40.9,87,76,59,30.21,30.09,9,0,9,0.00
2013-9-20,74.5,59.5,48.2,59.0,52.3,43.4,92,78,58,30.09,30.03,5,0,7,0.00
2013-9-21,73.2,64.5,55.4,66.5,59.3,52.2,94,84,69,30.03,29.74,12,0,12,0.00
2013-9-22,69.3,62.4,51.6,67.1,56.5,41.4,100,82,62,29.89,29.65,11,0,11,0.67
2013-9-23,63.7,52.5,44.2,49.5,43.4,39.3,87,72,59,30.03,29.89,8,0,8,0.00
2013-9-24,67.3,50.5,41.9,51.6,42.7,37.8,92,75,57,30.03,29.86,7,0,7,0.00
2013-9-25,68.4,56.3,46.4,54.0,48.8,42.2,91,77,58,29.98,29.89,7,0,7,0.00
2013-9-26,64.6,58.0,50.0,53.7,49.5,45.8,88,74,60,30.12,29.98,11,0,11,0.00
2013-9-27,63.3,54.8,48.4,51.8,48.9,44.0,90,81,62,30.27,30.12,7,0,7,0.00
2013-9-28,69.6,58.4,51.4,55.7,51.4,48.4,92,79,59,30.33,30.27,7,0,7,0.00
2013-9-29,67.3,56.3,49.3,55.8,49.2,44.7,97,78,58,30.27,30.12,10,0,10,0.00
2013-9-30,67.3,56.4,49.3,53.2,49.6,45.5,94,79,58,30.12,29.98,7,0,7,0.00